Terminal Aerodrome Forecast
Issued by NWS

Home | Current Version | Previous Version | Text Only | Print | Product List | Glossary Off
Versions: 1 2 3 4 5 6 7 8 9 10 11 12 13 14 15 16 17 18 19 20 21 22

000
FTUS43 KGRB 290400 AAA
TAFCWA
TAF AMD
KCWA 290403Z 2904/2924 12005KT P6SM VCSH SCT012 OVC040
     FM290700 12004KT 5SM -SHRA BR OVC015
     FM291500 17007KT 4SM -SHRA SCT014 OVC021
      TEMPO 2915/2918 3SM -TSRA OVC014CB
     FM292100 19008KT 4SM -SHRA BR BKN015
      AMD LTD TO CLD VIS AND WIND TIL 291100=

USA.gov is the U.S. government's official web portal to all federal, state and local government web resources and services.